Time;durP1;ratioP1;P1;durP2;ratioP2;P2;SDS_P1;SDS_P2;PMS_P1;PMS_P2;Temp;Humidity;BMP_temperature;BMP_pressure;BME280_temperature;BME280_humidity;BME280_pressure;Samples;Min_cycle;Max_cycle;Signal;HPM_P1;HPM_P2
2021/08/16 00:01:17;;;;;;;3.94;2.21;;;;;;;19.08;88.09;98833.47;1993680;78;23675;-73
2021/08/16 00:04:20;;;;;;;2.51;2.08;;;;;;;19.05;87.92;98845.00;1996872;81;20210;-73
2021/08/16 00:07:22;;;;;;;3.35;2.30;;;;;;;19.02;88.12;98840.69;1997299;81;20170;-72
2021/08/16 00:10:25;;;;;;;4.68;2.31;;;;;;;19.02;88.14;98837.22;1997402;81;20237;-72
2021/08/16 00:13:27;;;;;;;5.04;2.22;;;;;;;19.04;87.97;98847.69;1997405;81;20252;-72
2021/08/16 00:16:34;;;;;;;3.94;2.10;;;;;;;18.99;87.99;98850.53;1994274;79;22085;-72
2021/08/16 00:19:37;;;;;;;2.71;2.29;;;;;;;18.95;88.00;98851.59;1991962;81;20269;-73
2021/08/16 00:22:39;;;;;;;6.24;2.47;;;;;;;18.94;88.21;98861.28;1992080;81;21039;-72
2021/08/16 00:25:42;;;;;;;4.55;2.45;;;;;;;18.90;88.53;98849.19;1992339;81;20672;-73
2021/08/16 00:28:44;;;;;;;3.47;2.60;;;;;;;18.93;88.46;98861.34;1991946;81;20232;-73
2021/08/16 00:31:47;;;;;;;4.88;2.16;;;;;;;18.92;87.99;98857.88;1993780;78;20220;-73
2021/08/16 00:34:49;;;;;;;6.07;2.42;;;;;;;18.91;87.60;98861.44;1996752;81;20182;-73
2021/08/16 00:37:52;;;;;;;5.97;2.91;;;;;;;18.90;86.88;98861.50;2000528;81;20190;-73
2021/08/16 00:40:56;;;;;;;2.26;1.98;;;;;;;18.86;86.32;98866.06;1997206;81;20581;-73
2021/08/16 00:43:58;;;;;;;2.72;2.19;;;;;;;18.90;85.78;98872.88;1997225;81;20207;-72
2021/08/16 00:47:01;;;;;;;3.86;2.74;;;;;;;18.92;85.12;98870.16;1996886;79;20542;-73
2021/08/16 00:50:06;;;;;;;3.11;1.92;;;;;;;18.90;84.65;98867.63;1996886;81;20190;-73
2021/08/16 00:53:09;;;;;;;6.64;2.46;;;;;;;18.92;84.24;98870.16;1997063;81;20182;-74
2021/08/16 00:56:12;;;;;;;3.13;2.09;;;;;;;18.92;83.12;98871.03;1997033;81;20200;-73
2021/08/16 00:59:16;;;;;;;6.19;2.86;;;;;;;18.95;82.56;98870.03;2000142;81;20196;-72
2021/08/16 01:02:19;;;;;;;3.54;2.14;;;;;;;18.98;82.02;98875.13;1992411;79;20280;-73
2021/08/16 01:05:22;;;;;;;3.20;2.25;;;;;;;18.96;81.38;98869.94;1992185;81;20295;-73
2021/08/16 01:08:25;;;;;;;4.89;2.41;;;;;;;18.97;80.92;98876.91;1992134;81;20171;-73
2021/08/16 01:11:28;;;;;;;5.36;2.39;;;;;;;18.99;80.91;98880.31;1991536;81;21144;-73
2021/08/16 01:14:31;;;;;;;6.59;2.51;;;;;;;18.97;81.22;98884.81;1992002;81;20216;-73
2021/08/16 01:17:34;;;;;;;4.25;2.49;;;;;;;18.97;80.54;98891.84;1995057;78;21220;-73
2021/08/16 01:20:36;;;;;;;5.35;1.76;;;;;;;18.95;80.16;98891.06;1996519;81;20244;-73
2021/08/16 01:23:39;;;;;;;5.35;1.75;;;;;;;18.95;79.33;98901.59;1997250;81;20190;-73
2021/08/16 01:26:41;;;;;;;1.65;1.19;;;;;;;18.87;77.95;98903.75;1997085;81;20244;-73
2021/08/16 01:29:44;;;;;;;6.16;2.15;;;;;;;18.83;75.75;98918.78;1997037;81;20174;-73
2021/08/16 01:32:46;;;;;;;6.75;1.30;;;;;;;18.79;75.86;98919.84;1993336;79;22334;-73
2021/08/16 01:35:49;;;;;;;2.03;1.08;;;;;;;18.79;75.16;98924.25;1991224;81;20197;-73
2021/08/16 01:38:52;;;;;;;2.20;1.40;;;;;;;18.75;75.12;98931.44;1991685;81;20600;-73
2021/08/16 01:41:55;;;;;;;1.01;0.90;;;;;;;18.71;75.08;98930.75;1991469;81;20232;-73
2021/08/16 01:44:57;;;;;;;2.49;1.00;;;;;;;18.63;74.56;98927.56;1992246;81;20981;-74
2021/08/16 01:48:00;;;;;;;1.16;0.85;;;;;;;18.59;75.20;98920.72;1996206;78;23096;-73
2021/08/16 01:51:02;;;;;;;2.44;0.93;;;;;;;18.58;75.49;98926.91;1996269;81;20675;-73
2021/08/16 01:54:07;;;;;;;3.60;0.90;;;;;;;18.56;75.01;98934.00;1996820;81;20174;-73
2021/08/16 01:57:12;;;;;;;1.17;1.00;;;;;;;18.55;74.87;98934.94;1996842;81;20190;-73
2021/08/16 02:00:14;;;;;;;2.47;0.90;;;;;;;18.49;74.56;98934.34;1996196;81;20750;-73
2021/08/16 02:03:17;;;;;;;6.04;0.96;;;;;;;18.47;74.78;98944.91;1997978;81;20870;-73
2021/08/16 02:06:20;;;;;;;1.17;0.80;;;;;;;18.42;74.51;98952.16;1998102;81;20214;-73
2021/08/16 02:09:23;;;;;;;2.72;1.00;;;;;;;18.40;75.22;98956.63;1998913;81;21114;-73
2021/08/16 02:12:25;;;;;;;2.97;1.00;;;;;;;18.40;75.90;98952.22;1998928;81;20730;-73
2021/08/16 02:15:28;;;;;;;1.96;0.77;;;;;;;18.37;75.02;98952.38;1998135;78;22069;-73
2021/08/16 02:18:31;;;;;;;3.44;0.80;;;;;;;18.32;75.35;98959.59;1999228;81;20158;-73
2021/08/16 02:21:34;;;;;;;2.94;0.94;;;;;;;18.27;75.33;98953.66;1998565;81;20573;-73
2021/08/16 02:24:36;;;;;;;2.31;0.81;;;;;;;18.18;75.80;98954.06;1999340;81;20209;-73
2021/08/16 02:27:44;;;;;;;4.21;0.80;;;;;;;18.09;76.26;98946.56;1999070;81;20568;-73
2021/08/16 02:30:47;;;;;;;1.63;1.02;;;;;;;18.04;76.70;98948.53;1996350;78;20566;-73
2021/08/16 02:33:51;;;;;;;1.29;0.70;;;;;;;17.98;77.48;98954.91;1994258;81;20638;-73
2021/08/16 02:36:54;;;;;;;2.26;0.84;;;;;;;17.94;77.48;98953.31;1993453;81;20191;-73
2021/08/16 02:39:56;;;;;;;1.95;1.20;;;;;;;17.91;77.40;98969.19;1994442;81;20200;-73
2021/08/16 02:42:59;;;;;;;1.19;0.80;;;;;;;17.86;77.40;98963.28;1993466;81;20179;-73
2021/08/16 02:46:02;;;;;;;2.90;0.79;;;;;;;17.81;77.31;98965.25;1993995;78;21163;-73
2021/08/16 02:49:04;;;;;;;2.09;0.76;;;;;;;17.77;77.43;98966.25;1998750;81;20634;-73
2021/08/16 02:52:07;;;;;;;1.61;0.89;;;;;;;17.78;77.62;98975.88;1998581;81;20561;-73
2021/08/16 02:55:11;;;;;;;1.71;0.94;;;;;;;17.77;77.33;98984.66;1998967;81;20231;-73
2021/08/16 02:58:13;;;;;;;2.64;0.77;;;;;;;17.77;77.26;98989.91;1998682;81;20643;-73
2021/08/16 03:01:16;;;;;;;3.04;0.77;;;;;;;17.78;77.06;98986.38;1995713;81;21958;-72
2021/08/16 03:04:19;;;;;;;5.51;0.86;;;;;;;17.78;76.69;98989.00;1992820;81;20526;-73
2021/08/16 03:07:21;;;;;;;1.59;1.00;;;;;;;17.79;76.66;98993.34;1992727;81;20630;-73
2021/08/16 03:10:24;;;;;;;2.79;0.70;;;;;;;17.78;76.32;99003.00;1992865;81;20228;-73
2021/08/16 03:13:26;;;;;;;2.09;0.84;;;;;;;17.77;75.87;99000.41;1992109;81;20205;-73
2021/08/16 03:16:29;;;;;;;3.16;1.01;;;;;;;17.74;75.00;99009.25;1993653;78;21896;-73
2021/08/16 03:19:32;;;;;;;2.44;0.99;;;;;;;17.75;75.43;99008.34;1996986;81;20163;-73
2021/08/16 03:22:35;;;;;;;2.14;0.90;;;;;;;17.74;75.50;99018.91;1996998;81;20253;-73
2021/08/16 03:25:38;;;;;;;1.80;0.89;;;;;;;17.70;75.35;99012.94;1997603;81;20222;-73
2021/08/16 03:28:42;;;;;;;2.21;0.88;;;;;;;17.68;75.32;99022.66;1997055;81;20155;-73
2021/08/16 03:31:44;;;;;;;5.95;0.89;;;;;;;17.71;75.57;99021.66;1993879;78;20331;-73
2021/08/16 03:34:47;;;;;;;2.85;0.73;;;;;;;17.72;75.81;99020.75;1992171;81;20273;-73
2021/08/16 03:37:49;;;;;;;2.63;0.90;;;;;;;17.70;75.11;99026.06;1992098;81;20272;-73
2021/08/16 03:40:52;;;;;;;2.10;0.80;;;;;;;17.71;74.81;99024.28;1991999;81;20225;-73
2021/08/16 03:43:55;;;;;;;1.71;0.75;;;;;;;17.72;73.84;99032.13;1992320;81;20199;-73
2021/08/16 03:46:58;;;;;;;2.15;0.98;;;;;;;17.72;74.17;99023.38;1994922;78;22647;-73
2021/08/16 03:50:00;;;;;;;3.75;1.20;;;;;;;17.74;74.38;99021.53;1997224;81;20190;-73
2021/08/16 03:53:05;;;;;;;1.83;0.71;;;;;;;17.75;74.48;99018.84;1997346;81;20167;-73
2021/08/16 03:56:10;;;;;;;3.66;0.99;;;;;;;17.65;74.15;99029.75;1997554;81;20167;-73
2021/08/16 03:59:13;;;;;;;4.39;1.00;;;;;;;17.59;74.68;99033.47;1997361;81;20757;-73
2021/08/16 04:02:16;;;;;;;2.40;0.80;;;;;;;17.58;74.16;99042.25;1992470;79;27469;-73
2021/08/16 04:05:19;;;;;;;1.88;0.84;;;;;;;17.53;72.58;99041.59;1991995;81;20484;-73
2021/08/16 04:08:21;;;;;;;2.17;0.84;;;;;;;17.55;72.49;99044.16;1992375;81;20174;-73
2021/08/16 04:11:24;;;;;;;2.10;1.10;;;;;;;17.55;72.67;99049.41;1992052;81;20171;-73
2021/08/16 04:14:27;;;;;;;3.79;0.90;;;;;;;17.48;72.62;99049.63;1991848;81;20334;-73
2021/08/16 04:17:29;;;;;;;4.40;1.00;;;;;;;17.43;72.97;99043.72;1995326;78;20307;-73
2021/08/16 04:20:32;;;;;;;3.30;1.11;;;;;;;17.43;73.82;99042.88;1997359;81;20295;-73
2021/08/16 04:23:35;;;;;;;3.49;0.86;;;;;;;17.40;74.06;99048.19;1997228;81;20179;-73
2021/08/16 04:26:37;;;;;;;4.22;0.90;;;;;;;17.35;74.78;99047.53;1997127;81;20646;-73
2021/08/16 04:29:40;;;;;;;1.84;0.90;;;;;;;17.33;75.26;99051.97;1997295;81;20538;-73
2021/08/16 04:32:43;;;;;;;4.16;1.26;;;;;;;17.26;75.31;99045.25;1992257;78;20218;-73
2021/08/16 04:35:46;;;;;;;2.15;0.70;;;;;;;17.26;75.57;99053.13;1992385;81;20171;-73
2021/08/16 04:38:48;;;;;;;3.86;0.98;;;;;;;17.24;75.78;99052.34;1992155;81;20225;-73
2021/08/16 04:41:51;;;;;;;3.33;0.90;;;;;;;17.22;77.08;99047.13;1992560;81;20228;-74
2021/08/16 04:44:53;;;;;;;3.90;1.21;;;;;;;17.17;77.38;99062.19;1991780;81;20179;-73
2021/08/16 04:47:56;;;;;;;3.40;0.74;;;;;;;17.17;77.37;99056.94;1996581;78;22941;-74
2021/08/16 04:50:59;;;;;;;5.70;1.08;;;;;;;17.15;76.28;99058.75;1996951;81;20166;-73
2021/08/16 04:54:01;;;;;;;6.46;0.90;;;;;;;17.15;75.87;99070.13;1996868;81;20194;-73
2021/08/16 04:57:04;;;;;;;3.33;1.00;;;;;;;17.09;75.73;99075.59;1997954;81;20190;-73
2021/08/16 05:00:10;;;;;;;4.54;1.17;;;;;;;17.08;75.74;99070.41;1996372;81;20174;-75
2021/08/16 05:03:13;;;;;;;3.92;0.90;;;;;;;17.05;76.00;99060.84;1991539;79;24052;-73
2021/08/16 05:06:15;;;;;;;2.17;1.10;;;;;;;16.99;76.21;99066.31;1991892;81;20197;-73
2021/08/16 05:09:18;;;;;;;4.80;0.99;;;;;;;16.86;75.69;99079.00;1992328;81;20234;-74
2021/08/16 05:12:20;;;;;;;3.90;0.96;;;;;;;16.77;76.06;99073.25;1992649;81;20247;-74
2021/08/16 05:15:23;;;;;;;3.79;1.26;;;;;;;16.75;75.67;99072.44;1991768;78;20924;-74
2021/08/16 05:18:26;;;;;;;2.03;1.10;;;;;;;16.80;76.06;99076.59;1997083;81;20199;-73
2021/08/16 05:21:30;;;;;;;6.57;1.20;;;;;;;16.88;75.81;99089.47;1996440;81;20204;-74
2021/08/16 05:24:33;;;;;;;5.64;0.98;;;;;;;16.90;75.83;99088.50;1996686;81;20620;-73
2021/08/16 05:27:36;;;;;;;2.88;0.89;;;;;;;16.90;75.95;99085.03;1997890;81;20179;-73
2021/08/16 05:30:39;;;;;;;7.43;0.95;;;;;;;16.91;74.79;99089.34;1996208;78;20805;-73
2021/08/16 05:33:42;;;;;;;5.05;0.89;;;;;;;16.89;74.18;99096.44;1997003;81;20183;-73
2021/08/16 05:36:44;;;;;;;7.29;1.36;;;;;;;16.92;73.43;99091.06;1996976;81;20691;-74
2021/08/16 05:39:47;;;;;;;2.72;0.88;;;;;;;16.97;73.30;99091.75;1996751;81;20213;-74
2021/08/16 05:42:50;;;;;;;5.19;1.00;;;;;;;17.05;73.62;99089.69;1996962;81;20228;-74
2021/08/16 05:45:52;;;;;;;3.63;1.00;;;;;;;17.14;73.83;99093.78;1994531;79;21449;-73
2021/08/16 05:48:55;;;;;;;3.79;0.84;;;;;;;17.21;72.77;99100.50;1991542;81;20163;-74
2021/08/16 05:51:58;;;;;;;3.76;1.02;;;;;;;17.28;72.60;99103.78;1991516;81;20617;-74
2021/08/16 05:55:01;;;;;;;3.42;1.20;;;;;;;17.31;72.30;99115.03;1991908;81;20638;-76
2021/08/16 05:58:04;;;;;;;2.92;1.05;;;;;;;17.35;71.82;99115.78;1991978;81;20175;-74
2021/08/16 06:01:06;;;;;;;5.44;0.96;;;;;;;17.44;71.77;99115.44;1992080;78;22333;-73
2021/08/16 06:04:09;;;;;;;3.16;1.17;;;;;;;17.49;71.78;99119.59;1997277;81;20198;-73
2021/08/16 06:07:12;;;;;;;3.25;1.20;;;;;;;17.57;71.28;99111.44;1997497;81;20229;-74
2021/08/16 06:10:14;;;;;;;2.15;0.93;;;;;;;17.60;70.74;99110.50;1996835;81;20192;-72
2021/08/16 06:13:17;;;;;;;3.96;1.10;;;;;;;17.62;70.58;99106.88;1996910;81;20591;-73
2021/08/16 06:16:20;;;;;;;4.05;1.00;;;;;;;17.68;70.58;99111.06;1993336;78;23173;-72
2021/08/16 06:19:23;;;;;;;3.60;1.20;;;;;;;17.78;71.02;99109.81;1991721;81;20860;-72
2021/08/16 06:22:25;;;;;;;6.09;1.11;;;;;;;17.86;70.89;99113.00;1991631;81;20175;-73
2021/08/16 06:25:28;;;;;;;4.86;1.06;;;;;;;17.83;68.98;99118.38;1992171;81;20252;-72
2021/08/16 06:28:31;;;;;;;4.94;1.31;;;;;;;17.90;69.26;99119.84;1992258;81;20311;-73
2021/08/16 06:31:33;;;;;;;6.06;1.11;;;;;;;17.92;68.95;99119.78;1993400;79;21266;-73
2021/08/16 06:34:40;;;;;;;4.44;0.88;;;;;;;18.11;68.28;99128.66;1997117;81;20303;-73
2021/08/16 06:37:45;;;;;;;6.53;1.00;;;;;;;18.26;68.51;99119.31;1996620;81;20634;-72
2021/08/16 06:40:57;;;;;;;3.17;0.95;;;;;;;18.36;68.61;99113.63;1996419;81;20230;-72
2021/08/16 06:44:00;;;;;;;5.97;1.56;;;;;;;18.47;68.06;99115.81;1996913;81;20237;-73
2021/08/16 06:47:04;;;;;;;5.14;1.20;;;;;;;18.59;67.66;99115.31;1991850;79;21433;-72
2021/08/16 06:50:07;;;;;;;3.30;1.10;;;;;;;18.65;67.35;99122.97;1991538;81;20200;-72
2021/08/16 06:53:14;;;;;;;4.34;1.11;;;;;;;18.62;66.14;99124.84;1990987;81;20180;-73
2021/08/16 06:56:16;;;;;;;3.20;0.99;;;;;;;18.63;66.31;99127.44;1992298;81;20755;-73
2021/08/16 06:59:19;;;;;;;4.93;1.39;;;;;;;18.70;65.92;99125.44;1992509;81;20619;-73
2021/08/16 07:02:22;;;;;;;5.75;1.24;;;;;;;18.75;65.75;99134.00;1992029;79;23548;-74
2021/08/16 07:05:25;;;;;;;4.29;1.09;;;;;;;19.00;65.67;99132.00;1993247;81;20205;-73
2021/08/16 07:08:27;;;;;;;2.71;0.80;;;;;;;19.41;64.09;99128.53;1991807;81;20806;-73
2021/08/16 07:11:30;;;;;;;5.82;1.09;;;;;;;19.53;62.48;99126.16;1992335;81;20609;-74
2021/08/16 07:14:33;;;;;;;3.92;1.01;;;;;;;19.72;62.80;99125.38;1992942;81;20204;-76
2021/08/16 07:17:35;;;;;;;5.51;1.14;;;;;;;19.91;63.06;99129.72;1996485;78;20963;-76
2021/08/16 07:20:38;;;;;;;3.74;1.11;;;;;;;19.74;61.54;99132.28;1997690;81;20239;-76
2021/08/16 07:23:41;;;;;;;1.56;0.81;;;;;;;19.54;61.86;99129.69;1998167;81;20624;-75
2021/08/16 07:26:43;;;;;;;5.53;1.01;;;;;;;19.24;61.94;99131.91;1997629;81;20170;-74
2021/08/16 07:29:46;;;;;;;6.06;1.30;;;;;;;19.12;62.87;99135.06;1997382;81;20291;-74
2021/08/16 07:32:49;;;;;;;5.90;1.05;;;;;;;19.00;63.69;99136.44;1991505;79;46911;-74
2021/08/16 07:35:52;;;;;;;2.96;0.98;;;;;;;18.93;63.67;99140.25;1991995;81;20191;-75
2021/08/16 07:38:54;;;;;;;6.74;1.10;;;;;;;18.89;63.70;99141.31;1991161;81;20163;-75
2021/08/16 07:41:57;;;;;;;5.44;0.95;;;;;;;18.88;64.41;99140.44;1992466;81;20189;-74
2021/08/16 07:44:59;;;;;;;3.84;0.88;;;;;;;18.80;63.55;99145.16;1988527;81;20199;-74
2021/08/16 07:48:03;;;;;;;2.60;1.00;;;;;;;18.86;64.69;99144.06;1991459;79;21960;-75
2021/08/16 07:51:06;;;;;;;5.93;1.06;;;;;;;18.98;64.80;99148.78;1990292;81;20288;-74
2021/08/16 07:54:08;;;;;;;4.16;0.90;;;;;;;19.00;63.95;99149.59;1993391;81;20187;-74
2021/08/16 07:57:11;;;;;;;4.19;1.13;;;;;;;19.16;64.01;99150.63;1992352;81;20187;-74
2021/08/16 08:00:14;;;;;;;3.05;0.96;;;;;;;19.36;64.47;99148.91;1991801;81;20184;-74
2021/08/16 08:03:17;;;;;;;4.74;1.10;;;;;;;19.63;63.63;99152.16;1997971;78;23426;-77
2021/08/16 08:06:21;;;;;;;3.39;0.86;;;;;;;19.97;62.29;99143.56;1998512;81;20216;-79
2021/08/16 08:09:24;;;;;;;2.47;0.94;;;;;;;20.22;61.54;99144.94;1997781;81;20170;-75
2021/08/16 08:12:27;;;;;;;4.85;0.85;;;;;;;20.47;60.94;99151.72;1998312;81;20182;-75
2021/08/16 08:15:29;;;;;;;5.49;1.52;;;;;;;20.43;59.68;99148.38;1995912;79;48290;-78
2021/08/16 08:18:32;;;;;;;7.57;1.09;;;;;;;20.53;59.37;99140.88;1994768;81;20232;-78
2021/08/16 08:21:35;;;;;;;5.44;1.66;;;;;;;20.77;60.61;99144.94;1991787;81;20175;-76
2021/08/16 08:24:37;;;;;;;3.26;1.01;;;;;;;21.17;58.82;99150.81;1992488;81;20199;-75
2021/08/16 08:27:40;;;;;;;4.96;1.20;;;;;;;21.12;57.68;99151.06;1989903;81;20241;-76
2021/08/16 08:30:44;;;;;;;2.86;0.93;;;;;;;20.98;57.96;99152.69;1992764;78;22411;-77
2021/08/16 08:33:46;;;;;;;4.59;1.14;;;;;;;21.20;57.67;99140.13;1997556;81;20186;-75
2021/08/16 08:36:49;;;;;;;5.28;1.10;;;;;;;21.45;57.66;99131.78;1998571;81;20162;-75
2021/08/16 08:39:51;;;;;;;7.14;2.22;;;;;;;21.52;57.84;99141.09;1997817;81;20276;-76
2021/08/16 08:42:54;;;;;;;4.75;1.25;;;;;;;21.59;57.21;99142.47;1997463;81;20244;-76
2021/08/16 08:45:57;;;;;;;5.45;1.00;;;;;;;21.50;56.80;99142.97;1994696;78;20763;-75
2021/08/16 08:49:05;;;;;;;5.26;1.16;;;;;;;21.28;57.16;99142.38;1992404;81;20291;-76
2021/08/16 08:52:08;;;;;;;4.76;1.31;;;;;;;21.15;57.72;99143.91;1992565;81;20163;-76
2021/08/16 08:55:13;;;;;;;4.46;0.99;;;;;;;21.17;58.39;99150.81;1992463;81;20238;-76
2021/08/16 08:58:35;;;;;;;4.16;1.08;;;;;;;21.58;58.03;99142.56;1992466;81;20183;-76
2021/08/16 09:01:59;;;;;;;4.09;1.06;;;;;;;22.29;55.89;99137.81;1995293;78;21377;-76
2021/08/16 09:05:03;;;;;;;5.80;1.51;;;;;;;23.01;55.39;99137.16;1997398;81;20323;-75
2021/08/16 09:08:05;;;;;;;3.55;1.05;;;;;;;23.15;51.97;99131.88;1998666;81;20188;-77
2021/08/16 09:11:11;;;;;;;5.30;1.34;;;;;;;23.01;51.78;99134.53;1997051;81;20178;-76
2021/08/16 09:14:17;;;;;;;;;;;;;;;22.99;52.54;99127.63;1997918;81;20183;-77
2021/08/16 09:17:30;;;;;;;3.50;1.40;;;;;;;22.94;52.19;99129.66;1992207;80;21938;-76
2021/08/16 09:20:35;;;;;;;6.89;1.05;;;;;;;22.83;52.42;99115.28;1992319;81;20175;-76
2021/08/16 09:23:47;;;;;;;5.44;1.19;;;;;;;22.64;53.49;99117.28;1992080;81;20700;-76
2021/08/16 09:26:50;;;;;;;4.06;1.41;;;;;;;22.37;53.57;99117.03;1992147;81;20232;-76
2021/08/16 09:29:59;;;;;;;7.01;1.25;;;;;;;21.96;54.60;99116.69;1991484;81;20646;-75
2021/08/16 09:33:18;;;;;;;5.96;1.39;;;;;;;21.60;56.16;99115.13;1990683;79;21308;-75
2021/08/16 09:36:32;;;;;;;4.94;1.40;;;;;;;21.29;58.06;99123.81;1986795;81;20183;-75
2021/08/16 09:39:36;;;;;;;6.89;1.39;;;;;;;21.11;59.52;99122.09;1985985;81;20606;-75
2021/08/16 09:42:44;;;;;;;4.88;1.09;;;;;;;20.96;60.47;99130.81;1986673;81;20302;-75
2021/08/16 09:45:47;;;;;;;3.86;1.00;;;;;;;20.83;61.07;99127.09;1985856;79;20939;-75
2021/08/16 09:48:57;;;;;;;6.20;1.04;;;;;;;20.70;61.68;99125.06;1987064;81;20184;-75
2021/08/16 09:52:11;;;;;;;5.22;1.35;;;;;;;20.63;61.93;99123.63;1986856;81;20175;-75
2021/08/16 09:55:15;;;;;;;2.86;1.38;;;;;;;20.55;62.66;99123.19;1989977;81;20179;-76
2021/08/16 09:58:20;;;;;;;3.79;0.96;;;;;;;20.41;63.47;99130.91;1987117;81;20172;-75
2021/08/16 10:01:23;;;;;;;4.25;1.10;;;;;;;20.48;63.70;99143.75;1988826;78;21727;-75
2021/08/16 10:04:28;;;;;;;4.03;1.24;;;;;;;20.49;63.15;99132.25;1991625;81;20204;-76
2021/08/16 10:07:34;;;;;;;6.56;1.66;;;;;;;20.50;62.54;99135.75;1992840;81;20202;-76
2021/08/16 10:10:39;;;;;;;4.78;1.24;;;;;;;20.62;62.76;99143.03;1992381;81;20611;-76
2021/08/16 10:13:53;;;;;;;7.14;1.19;;;;;;;20.73;62.80;99140.75;1992039;81;20677;-76
2021/08/16 10:16:58;;;;;;;2.30;1.00;;;;;;;20.87;61.94;99140.06;1987976;78;22565;-76
2021/08/16 10:20:03;;;;;;;3.86;1.04;;;;;;;20.98;60.75;99142.13;1986813;81;20183;-75
2021/08/16 10:23:45;;;;;;;6.24;1.21;;;;;;;21.06;60.17;99139.97;1986626;81;20211;-76
2021/08/16 10:27:04;;;;;;;4.75;1.14;;;;;;;21.24;60.12;99138.16;1986170;81;20196;-75
2021/08/16 10:30:11;;;;;;;4.35;0.80;;;;;;;21.31;58.97;99147.50;1987170;81;20193;-77
2021/08/16 10:33:13;;;;;;;3.97;0.96;;;;;;;21.27;58.54;99136.25;1994078;78;21701;-78
2021/08/16 10:36:20;;;;;;;4.75;1.20;;;;;;;21.39;58.38;99140.06;1998586;81;20170;-79
2021/08/16 10:39:36;;;;;;;4.69;1.04;;;;;;;21.24;58.07;99135.53;2002214;81;20198;-78
2021/08/16 10:42:40;;;;;;;4.39;0.90;;;;;;;21.18;58.29;99143.75;1998763;81;20224;-74
2021/08/16 10:45:53;;;;;;;2.58;0.73;;;;;;;21.34;57.71;99139.41;1995452;78;20857;-73
2021/08/16 10:49:01;;;;;;;3.26;0.91;;;;;;;21.42;57.58;99139.88;1992424;81;20648;-74
2021/08/16 10:52:06;;;;;;;3.80;1.00;;;;;;;21.45;57.77;99136.22;1992959;81;20197;-72
2021/08/16 10:55:23;;;;;;;5.45;1.00;;;;;;;21.52;58.64;99138.44;1991659;81;20183;-75
2021/08/16 10:58:26;;;;;;;2.28;0.80;;;;;;;21.41;58.84;99130.25;1992439;81;20171;-76
2021/08/16 11:01:30;;;;;;;2.26;0.63;;;;;;;21.27;58.92;99124.84;1993927;79;23765;-74
2021/08/16 11:04:53;;;;;;;2.14;0.54;;;;;;;21.27;58.26;99128.31;1997176;81;20592;-74
2021/08/16 11:07:58;;;;;;;1.04;0.60;;;;;;;21.42;58.55;99127.53;1997608;81;21144;-74
2021/08/16 11:11:06;;;;;;;3.78;0.80;;;;;;;21.65;58.98;99120.16;1996969;81;20178;-73
2021/08/16 11:14:11;;;;;;;1.46;0.59;;;;;;;21.82;57.17;99117.44;1996762;81;20178;-73
2021/08/16 11:17:13;;;;;;;1.94;0.75;;;;;;;22.12;57.54;99122.03;1992442;78;32199;-72
2021/08/16 11:20:18;;;;;;;1.21;0.64;;;;;;;22.77;56.83;99120.88;1991490;81;20231;-73
2021/08/16 11:23:21;;;;;;;3.10;0.89;;;;;;;23.17;54.95;99115.91;1991712;81;20240;-74
2021/08/16 11:26:25;;;;;;;2.22;0.82;;;;;;;23.45;53.62;99117.72;1991456;81;20569;-75
2021/08/16 11:29:29;;;;;;;3.36;0.51;;;;;;;23.67;52.99;99115.47;1991994;81;20175;-73
2021/08/16 11:32:34;;;;;;;1.19;0.55;;;;;;;23.48;53.36;99122.84;1995551;78;25262;-74
2021/08/16 11:35:36;;;;;;;1.64;0.60;;;;;;;23.26;51.86;99120.66;1997307;81;20630;-74
2021/08/16 11:38:42;;;;;;;3.67;0.70;;;;;;;23.08;52.77;99114.66;1997044;81;20691;-75
2021/08/16 11:41:44;;;;;;;3.45;0.71;;;;;;;22.98;53.74;99128.53;1995797;81;20191;-73
2021/08/16 11:45:03;;;;;;;3.50;0.90;;;;;;;22.92;53.56;99125.31;1996695;81;20200;-72
2021/08/16 11:48:06;;;;;;;1.81;0.66;;;;;;;22.96;53.62;99123.31;1991889;78;21961;-74
2021/08/16 11:51:09;;;;;;;3.16;0.90;;;;;;;22.94;53.92;99129.66;1991911;81;20171;-73
2021/08/16 11:54:24;;;;;;;3.58;1.00;;;;;;;22.75;54.33;99129.84;1992059;81;20228;-74
2021/08/16 11:57:26;;;;;;;8.45;1.34;;;;;;;22.55;53.67;99129.22;1991571;81;20542;-74
2021/08/16 12:00:36;;;;;;;5.45;1.13;;;;;;;22.48;54.57;99140.25;1991345;78;23070;-73
2021/08/16 12:03:39;;;;;;;5.19;1.10;;;;;;;22.53;54.98;99127.59;1996657;81;21039;-73
2021/08/16 12:06:47;;;;;;;6.14;2.09;;;;;;;22.43;55.44;99121.97;1995879;81;20372;-72
2021/08/16 12:09:49;;;;;;;5.84;1.30;;;;;;;22.54;55.49;99121.38;1997502;81;20230;-73
2021/08/16 12:13:00;;;;;;;4.93;1.16;;;;;;;22.70;54.88;99121.34;1996711;81;20226;-73
2021/08/16 12:16:02;;;;;;;6.82;1.21;;;;;;;22.68;54.64;99120.59;1993978;80;21273;-73
2021/08/16 12:19:06;;;;;;;4.84;1.23;;;;;;;22.75;53.79;99127.22;1992720;81;20289;-72
2021/08/16 12:22:10;;;;;;;7.61;1.24;;;;;;;22.73;53.90;99127.31;1991258;81;20211;-72
2021/08/16 12:25:13;;;;;;;4.19;1.13;;;;;;;22.80;53.92;99128.66;1991630;81;20257;-72
2021/08/16 12:28:16;;;;;;;3.53;0.80;;;;;;;22.96;54.07;99128.63;1991031;81;20203;-72
2021/08/16 12:31:24;;;;;;;5.22;0.98;;;;;;;23.07;53.29;99128.00;1993157;78;20182;-73
2021/08/16 12:34:33;;;;;;;2.21;0.90;;;;;;;23.10;53.65;99117.22;1997287;81;20229;-73
2021/08/16 12:37:36;;;;;;;3.89;0.99;;;;;;;22.97;53.25;99116.22;1996686;81;20214;-72
2021/08/16 12:40:38;;;;;;;3.24;1.11;;;;;;;22.78;53.46;99116.44;1996173;81;20227;-73
2021/08/16 12:43:43;;;;;;;3.59;1.00;;;;;;;22.67;54.60;99122.38;1996249;81;20275;-73
2021/08/16 12:46:57;;;;;;;5.46;1.21;;;;;;;22.36;54.42;99127.72;1992958;79;21459;-73
2021/08/16 12:50:02;;;;;;;4.24;0.94;;;;;;;22.07;54.98;99124.06;1992266;81;20972;-73
2021/08/16 12:53:06;;;;;;;2.71;1.01;;;;;;;21.76;55.87;99120.44;1990934;81;20197;-74
2021/08/16 12:56:09;;;;;;;3.90;0.96;;;;;;;21.60;56.52;99115.13;1989790;81;21384;-73
2021/08/16 12:59:12;;;;;;;8.96;1.16;;;;;;;21.42;58.04;99121.38;1991770;81;20184;-73
2021/08/16 13:02:25;;;;;;;3.17;0.99;;;;;;;21.25;57.92;99114.34;1989978;79;23648;-72
2021/08/16 13:05:31;;;;;;;3.33;0.96;;;;;;;21.23;58.14;99108.28;1991585;81;20214;-72
2021/08/16 13:08:33;;;;;;;4.34;0.94;;;;;;;21.17;58.42;99111.22;1991004;81;20215;-72
2021/08/16 13:11:36;;;;;;;3.39;1.00;;;;;;;21.18;58.44;99109.41;1992418;81;20241;-72
2021/08/16 13:14:39;;;;;;;3.95;0.80;;;;;;;21.25;58.35;99103.78;1991551;81;20205;-73
2021/08/16 13:17:42;;;;;;;2.90;1.09;;;;;;;21.30;58.36;99095.63;1995105;79;23224;-73
2021/08/16 13:20:44;;;;;;;4.06;0.93;;;;;;;21.36;57.89;99090.88;1996812;81;20194;-73
2021/08/16 13:23:47;;;;;;;2.66;0.82;;;;;;;21.17;57.91;99091.88;1995894;81;20198;-72
2021/08/16 13:26:49;;;;;;;4.74;0.90;;;;;;;20.96;58.36;99091.19;1996412;81;20211;-73
2021/08/16 13:29:52;;;;;;;2.35;0.70;;;;;;;20.78;58.56;99093.84;1997218;81;20661;-72
2021/08/16 13:32:55;;;;;;;3.26;0.70;;;;;;;20.60;58.64;99096.56;1991158;79;20212;-73
2021/08/16 13:35:58;;;;;;;3.26;0.85;;;;;;;20.71;59.10;99100.38;1991927;81;20218;-73
2021/08/16 13:39:00;;;;;;;6.21;0.85;;;;;;;20.85;59.18;99097.06;1991844;81;20180;-73
2021/08/16 13:42:03;;;;;;;3.05;0.80;;;;;;;20.85;58.43;99088.28;1991724;81;20986;-73
2021/08/16 13:45:08;;;;;;;2.28;0.70;;;;;;;20.76;58.55;99101.00;1992470;81;20204;-77
2021/08/16 13:48:10;;;;;;;2.00;0.60;;;;;;;20.67;59.85;99093.56;1996616;78;20615;-74
2021/08/16 13:51:13;;;;;;;3.89;0.60;;;;;;;20.61;59.34;99111.47;1997381;81;20373;-77
2021/08/16 13:54:16;;;;;;;2.91;0.70;;;;;;;20.38;60.80;99109.94;1996863;81;20214;-75
2021/08/16 13:57:18;;;;;;;1.60;1.05;;;;;;;20.14;63.11;99098.81;1996810;81;20581;-75
2021/08/16 14:00:21;;;;;;;2.30;0.52;;;;;;;20.14;65.01;99098.81;1995889;81;20194;-75
2021/08/16 14:03:24;;;;;;;3.80;0.79;;;;;;;20.21;65.17;99093.16;1991161;78;23425;-75
2021/08/16 14:06:27;;;;;;;2.33;0.56;;;;;;;20.38;65.63;99096.75;1992855;81;20650;-75
2021/08/16 14:09:29;;;;;;;3.29;0.76;;;;;;;20.60;65.37;99093.94;1992548;81;20238;-74
2021/08/16 14:12:32;;;;;;;4.32;0.59;;;;;;;20.89;64.36;99090.69;1993247;81;20190;-75
2021/08/16 14:15:35;;;;;;;2.16;0.40;;;;;;;21.10;62.00;99094.84;1993792;78;20244;-74
2021/08/16 14:18:37;;;;;;;2.22;0.41;;;;;;;21.48;61.03;99091.16;1997851;81;20190;-75
2021/08/16 14:21:40;;;;;;;3.01;0.49;;;;;;;21.79;58.96;99083.25;1997724;81;20231;-75
2021/08/16 14:24:42;;;;;;;1.13;0.41;;;;;;;21.90;57.96;99085.28;1996855;81;20777;-75
2021/08/16 14:27:45;;;;;;;2.53;0.75;;;;;;;21.89;57.13;99091.53;1996882;81;20208;-76